sensor_id;sensor_type;location;lat;lon;timestamp;pressure;altitude;pressure_sealevel;temperature;humidity
54948;BME280;41113;41.882;12.530;2023-08-31T00:01:11;100624.38;;;20.68;70.38
54948;BME280;41113;41.882;12.530;2023-08-31T00:03:36;100615.50;;;20.53;71.62
54948;BME280;41113;41.882;12.530;2023-08-31T00:06:02;100617.59;;;20.51;71.07
54948;BME280;41113;41.882;12.530;2023-08-31T00:08:32;100624.25;;;20.42;71.33
54948;BME280;41113;41.882;12.530;2023-08-31T00:10:59;100622.94;;;20.38;71.27
54948;BME280;41113;41.882;12.530;2023-08-31T00:13:25;100628.50;;;20.51;70.50
54948;BME280;41113;41.882;12.530;2023-08-31T00:15:54;100625.59;;;20.59;70.01
54948;BME280;41113;41.882;12.530;2023-08-31T00:18:20;100627.66;;;20.50;70.78
54948;BME280;41113;41.882;12.530;2023-08-31T00:20:46;100632.22;;;20.43;70.68
54948;BME280;41113;41.882;12.530;2023-08-31T00:23:11;100636.44;;;20.46;70.65
54948;BME280;41113;41.882;12.530;2023-08-31T00:25:36;100637.38;;;20.32;71.25
54948;BME280;41113;41.882;12.530;2023-08-31T00:28:02;100633.53;;;20.19;71.79
54948;BME280;41113;41.882;12.530;2023-08-31T00:30:30;100634.91;;;20.09;72.32
54948;BME280;41113;41.882;12.530;2023-08-31T00:32:57;100632.50;;;20.20;71.96
54948;BME280;41113;41.882;12.530;2023-08-31T00:35:25;100626.53;;;20.10;71.90
54948;BME280;41113;41.882;12.530;2023-08-31T00:37:51;100634.47;;;20.05;72.29
54948;BME280;41113;41.882;12.530;2023-08-31T00:40:16;100633.22;;;20.08;71.41
54948;BME280;41113;41.882;12.530;2023-08-31T00:42:42;100637.19;;;20.05;72.23
54948;BME280;41113;41.882;12.530;2023-08-31T00:45:08;100636.97;;;20.00;72.24
54948;BME280;41113;41.882;12.530;2023-08-31T00:47:33;100636.09;;;19.93;72.38
54948;BME280;41113;41.882;12.530;2023-08-31T00:49:59;100632.72;;;19.91;72.19
54948;BME280;41113;41.882;12.530;2023-08-31T00:52:25;100630.88;;;19.98;71.97
54948;BME280;41113;41.882;12.530;2023-08-31T00:54:51;100630.72;;;20.06;71.94
54948;BME280;41113;41.882;12.530;2023-08-31T00:57:17;100622.69;;;19.98;71.71
54948;BME280;41113;41.882;12.530;2023-08-31T00:59:43;100618.13;;;20.05;71.50
54948;BME280;41113;41.882;12.530;2023-08-31T01:02:32;100616.53;;;20.17;70.98
54948;BME280;41113;41.882;12.530;2023-08-31T01:05:13;100623.31;;;20.28;70.24
54948;BME280;41113;41.882;12.530;2023-08-31T01:13:03;100632.09;;;20.24;70.78
54948;BME280;41113;41.882;12.530;2023-08-31T01:15:38;100636.84;;;20.15;70.52
54948;BME280;41113;41.882;12.530;2023-08-31T01:18:06;100634.50;;;20.12;71.04
54948;BME280;41113;41.882;12.530;2023-08-31T01:20:37;100636.16;;;20.06;71.57
54948;BME280;41113;41.882;12.530;2023-08-31T01:23:10;100635.75;;;20.09;70.81
54948;BME280;41113;41.882;12.530;2023-08-31T01:25:38;100630.22;;;19.96;71.73
54948;BME280;41113;41.882;12.530;2023-08-31T01:28:06;100640.88;;;19.91;71.71
54948;BME280;41113;41.882;12.530;2023-08-31T01:30:31;100634.41;;;19.92;72.04
54948;BME280;41113;41.882;12.530;2023-08-31T01:32:57;100637.19;;;20.05;70.63
54948;BME280;41113;41.882;12.530;2023-08-31T01:35:23;100636.81;;;20.08;70.47
54948;BME280;41113;41.882;12.530;2023-08-31T01:37:54;100632.06;;;19.89;71.36
54948;BME280;41113;41.882;12.530;2023-08-31T01:42:59;100634.56;;;19.63;72.43
54948;BME280;41113;41.882;12.530;2023-08-31T01:45:26;100635.38;;;19.56;72.59
54948;BME280;41113;41.882;12.530;2023-08-31T01:47:52;100641.53;;;19.50;72.44
54948;BME280;41113;41.882;12.530;2023-08-31T01:50:17;100636.78;;;19.52;72.27
54948;BME280;41113;41.882;12.530;2023-08-31T01:52:43;100643.94;;;19.53;72.22
54948;BME280;41113;41.882;12.530;2023-08-31T01:55:08;100641.69;;;19.42;73.04
54948;BME280;41113;41.882;12.530;2023-08-31T01:57:34;100651.09;;;19.40;72.76
54948;BME280;41113;41.882;12.530;2023-08-31T02:00:00;100649.84;;;19.42;73.07
54948;BME280;41113;41.882;12.530;2023-08-31T02:02:25;100648.56;;;19.38;72.84
54948;BME280;41113;41.882;12.530;2023-08-31T02:04:50;100649.59;;;19.37;73.00
54948;BME280;41113;41.882;12.530;2023-08-31T02:07:17;100657.88;;;19.50;72.34
54948;BME280;41113;41.882;12.530;2023-08-31T02:09:43;100655.69;;;19.39;72.67
54948;BME280;41113;41.882;12.530;2023-08-31T02:12:08;100648.88;;;19.50;72.21
54948;BME280;41113;41.882;12.530;2023-08-31T02:14:36;100654.25;;;19.43;72.38
54948;BME280;41113;41.882;12.530;2023-08-31T02:17:02;100652.38;;;19.44;72.24
54948;BME280;41113;41.882;12.530;2023-08-31T02:19:27;100659.38;;;19.32;72.67
54948;BME280;41113;41.882;12.530;2023-08-31T02:21:53;100671.97;;;19.33;72.55
54948;BME280;41113;41.882;12.530;2023-08-31T02:24:18;100665.03;;;19.30;73.08
54948;BME280;41113;41.882;12.530;2023-08-31T02:26:44;100661.28;;;19.31;72.66
54948;BME280;41113;41.882;12.530;2023-08-31T02:29:09;100669.06;;;19.34;72.87
54948;BME280;41113;41.882;12.530;2023-08-31T02:31:34;100673.03;;;19.17;73.69
54948;BME280;41113;41.882;12.530;2023-08-31T02:34:00;100675.88;;;19.09;73.41
54948;BME280;41113;41.882;12.530;2023-08-31T02:36:25;100679.53;;;19.16;73.16
54948;BME280;41113;41.882;12.530;2023-08-31T02:38:50;100672.78;;;19.12;73.41
54948;BME280;41113;41.882;12.530;2023-08-31T02:41:16;100675.81;;;19.02;73.76
54948;BME280;41113;41.882;12.530;2023-08-31T02:43:42;100681.25;;;19.02;74.18
54948;BME280;41113;41.882;12.530;2023-08-31T02:46:08;100684.19;;;19.01;74.03
54948;BME280;41113;41.882;12.530;2023-08-31T02:48:33;100682.94;;;19.03;73.79
54948;BME280;41113;41.882;12.530;2023-08-31T02:50:59;100690.91;;;19.05;73.51
54948;BME280;41113;41.882;12.530;2023-08-31T02:53:29;100692.34;;;19.01;73.90
54948;BME280;41113;41.882;12.530;2023-08-31T02:55:55;100685.22;;;19.00;73.71
54948;BME280;41113;41.882;12.530;2023-08-31T02:58:20;100692.81;;;19.04;73.44
54948;BME280;41113;41.882;12.530;2023-08-31T03:00:46;100688.28;;;19.11;73.34
54948;BME280;41113;41.882;12.530;2023-08-31T03:03:15;100696.47;;;18.96;73.78
54948;BME280;41113;41.882;12.530;2023-08-31T03:05:40;100693.88;;;18.88;74.45
54948;BME280;41113;41.882;12.530;2023-08-31T03:08:05;100694.34;;;18.92;73.97
54948;BME280;41113;41.882;12.530;2023-08-31T03:10:31;100689.63;;;19.01;73.66
54948;BME280;41113;41.882;12.530;2023-08-31T03:12:56;100690.38;;;18.94;74.12
54948;BME280;41113;41.882;12.530;2023-08-31T03:15:21;100688.78;;;19.00;74.23
54948;BME280;41113;41.882;12.530;2023-08-31T03:17:47;100688.69;;;18.93;74.07
54948;BME280;41113;41.882;12.530;2023-08-31T03:20:12;100697.91;;;18.92;74.40
54948;BME280;41113;41.882;12.530;2023-08-31T03:22:37;100695.94;;;18.86;74.47
54948;BME280;41113;41.882;12.530;2023-08-31T03:25:03;100693.88;;;18.88;74.19
54948;BME280;41113;41.882;12.530;2023-08-31T03:27:28;100693.22;;;18.86;74.51
54948;BME280;41113;41.882;12.530;2023-08-31T03:29:54;100695.38;;;18.91;74.39
54948;BME280;41113;41.882;12.530;2023-08-31T03:32:19;100690.38;;;18.94;73.78
54948;BME280;41113;41.882;12.530;2023-08-31T03:34:44;100690.47;;;19.01;73.94
54948;BME280;41113;41.882;12.530;2023-08-31T03:37:10;100691.38;;;19.08;73.38
54948;BME280;41113;41.882;12.530;2023-08-31T03:39:35;100691.84;;;19.12;73.38
54948;BME280;41113;41.882;12.530;2023-08-31T03:42:00;100697.53;;;19.17;73.07
54948;BME280;41113;41.882;12.530;2023-08-31T03:44:26;100697.41;;;19.04;73.60
54948;BME280;41113;41.882;12.530;2023-08-31T03:46:51;100701.88;;;19.11;73.09
54948;BME280;41113;41.882;12.530;2023-08-31T03:49:17;100708.56;;;19.09;73.27
54948;BME280;41113;41.882;12.530;2023-08-31T03:51:42;100715.69;;;19.10;73.26
54948;BME280;41113;41.882;12.530;2023-08-31T03:54:08;100709.44;;;18.94;73.95
54948;BME280;41113;41.882;12.530;2023-08-31T03:56:34;100720.50;;;18.93;73.81
54948;BME280;41113;41.882;12.530;2023-08-31T03:59:02;100712.16;;;18.94;73.79
54948;BME280;41113;41.882;12.530;2023-08-31T04:01:28;100722.16;;;19.09;73.05
54948;BME280;41113;41.882;12.530;2023-08-31T04:03:54;100733.56;;;18.98;73.66
54948;BME280;41113;41.882;12.530;2023-08-31T04:06:19;100733.34;;;18.84;74.22
54948;BME280;41113;41.882;12.530;2023-08-31T04:08:44;100736.47;;;18.81;74.33
54948;BME280;41113;41.882;12.530;2023-08-31T04:11:10;100743.69;;;18.74;74.70
54948;BME280;41113;41.882;12.530;2023-08-31T04:13:35;100746.13;;;18.69;74.44
54948;BME280;41113;41.882;12.530;2023-08-31T04:16:00;100745.94;;;18.56;75.36
54948;BME280;41113;41.882;12.530;2023-08-31T04:18:26;100742.47;;;18.62;74.89
54948;BME280;41113;41.882;12.530;2023-08-31T04:20:53;100749.31;;;18.58;75.29
54948;BME280;41113;41.882;12.530;2023-08-31T04:23:19;100753.31;;;18.47;75.45
54948;BME280;41113;41.882;12.530;2023-08-31T04:25:45;100750.50;;;18.41;75.80
54948;BME280;41113;41.882;12.530;2023-08-31T04:28:11;100757.25;;;18.45;75.66
54948;BME280;41113;41.882;12.530;2023-08-31T04:30:36;100758.50;;;18.57;74.83
54948;BME280;41113;41.882;12.530;2023-08-31T04:33:02;100761.41;;;18.55;75.44
54948;BME280;41113;41.882;12.530;2023-08-31T04:35:30;100769.97;;;18.67;74.39
54948;BME280;41113;41.882;12.530;2023-08-31T04:37:56;100775.66;;;18.57;75.24
54948;BME280;41113;41.882;12.530;2023-08-31T04:40:22;100770.69;;;18.61;74.84
54948;BME280;41113;41.882;12.530;2023-08-31T04:42:47;100777.09;;;18.68;74.58
54948;BME280;41113;41.882;12.530;2023-08-31T04:45:12;100781.78;;;18.74;74.33
54948;BME280;41113;41.882;12.530;2023-08-31T04:47:38;100776.72;;;18.86;73.95
54948;BME280;41113;41.882;12.530;2023-08-31T04:50:03;100783.38;;;18.83;73.84
54948;BME280;41113;41.882;12.530;2023-08-31T04:52:31;100778.25;;;18.88;73.95
54948;BME280;41113;41.882;12.530;2023-08-31T04:54:57;100789.03;;;18.96;73.47
54948;BME280;41113;41.882;12.530;2023-08-31T04:57:22;100789.69;;;18.99;73.40
54948;BME280;41113;41.882;12.530;2023-08-31T04:59:48;100786.19;;;19.05;73.05
54948;BME280;41113;41.882;12.530;2023-08-31T05:02:14;100794.53;;;19.18;72.39
54948;BME280;41113;41.882;12.530;2023-08-31T05:04:39;100791.22;;;19.37;71.79
54948;BME280;41113;41.882;12.530;2023-08-31T05:07:04;100794.66;;;19.46;71.47
54948;BME280;41113;41.882;12.530;2023-08-31T05:09:30;100790.34;;;19.66;70.70
54948;BME280;41113;41.882;12.530;2023-08-31T05:12:00;100791.03;;;19.75;70.31
54948;BME280;41113;41.882;12.530;2023-08-31T05:14:25;100796.31;;;19.98;69.63
54948;BME280;41113;41.882;12.530;2023-08-31T05:16:51;100795.06;;;20.43;67.80
54948;BME280;41113;41.882;12.530;2023-08-31T05:19:16;100793.91;;;20.52;67.29
54948;BME280;41113;41.882;12.530;2023-08-31T05:21:42;100796.66;;;20.87;66.20
54948;BME280;41113;41.882;12.530;2023-08-31T05:24:07;100808.59;;;21.20;65.01
54948;BME280;41113;41.882;12.530;2023-08-31T05:26:33;100809.91;;;21.24;64.59
54948;BME280;41113;41.882;12.530;2023-08-31T05:28:59;100810.03;;;21.51;64.01
54948;BME280;41113;41.882;12.530;2023-08-31T05:31:24;100817.63;;;21.62;63.71
54948;BME280;41113;41.882;12.530;2023-08-31T05:33:50;100818.13;;;21.92;62.89
54948;BME280;41113;41.882;12.530;2023-08-31T05:36:15;100818.59;;;22.09;61.62
54948;BME280;41113;41.882;12.530;2023-08-31T05:38:40;100826.19;;;22.13;62.37
54948;BME280;41113;41.882;12.530;2023-08-31T05:41:09;100829.78;;;22.14;62.67
54948;BME280;41113;41.882;12.530;2023-08-31T05:43:36;100832.28;;;22.09;62.20
54948;BME280;41113;41.882;12.530;2023-08-31T05:46:01;100832.31;;;22.15;62.00
54948;BME280;41113;41.882;12.530;2023-08-31T05:48:27;100841.06;;;21.97;62.82
54948;BME280;41113;41.882;12.530;2023-08-31T05:50:53;100840.72;;;22.14;62.83
54948;BME280;41113;41.882;12.530;2023-08-31T05:53:19;100852.75;;;22.59;61.88
54948;BME280;41113;41.882;12.530;2023-08-31T05:55:44;100857.59;;;22.90;60.36
54948;BME280;41113;41.882;12.530;2023-08-31T05:58:10;100858.66;;;22.49;61.54
54948;BME280;41113;41.882;12.530;2023-08-31T06:00:35;100866.41;;;22.26;61.15
54948;BME280;41113;41.882;12.530;2023-08-31T06:03:01;100864.50;;;22.33;61.36
54948;BME280;41113;41.882;12.530;2023-08-31T06:05:28;100866.56;;;22.11;62.24
54948;BME280;41113;41.882;12.530;2023-08-31T06:07:55;100862.41;;;22.15;62.19
54948;BME280;41113;41.882;12.530;2023-08-31T06:10:21;100871.03;;;22.19;61.86
54948;BME280;41113;41.882;12.530;2023-08-31T06:12:48;100878.44;;;22.45;61.22
54948;BME280;41113;41.882;12.530;2023-08-31T06:15:13;100875.06;;;22.62;60.67
54948;BME280;41113;41.882;12.530;2023-08-31T06:17:40;100879.66;;;22.16;61.11
54948;BME280;41113;41.882;12.530;2023-08-31T06:20:07;100870.56;;;22.09;61.81
54948;BME280;41113;41.882;12.530;2023-08-31T06:22:33;100869.56;;;22.23;61.40
54948;BME280;41113;41.882;12.530;2023-08-31T06:24:59;100869.16;;;22.32;61.37
54948;BME280;41113;41.882;12.530;2023-08-31T06:27:24;100870.81;;;22.14;61.55
54948;BME280;41113;41.882;12.530;2023-08-31T06:29:50;100876.75;;;22.50;60.76
54948;BME280;41113;41.882;12.530;2023-08-31T06:32:16;100870.03;;;22.86;59.89
54948;BME280;41113;41.882;12.530;2023-08-31T06:34:42;100870.84;;;23.13;59.30
54948;BME280;41113;41.882;12.530;2023-08-31T06:37:07;100878.22;;;22.53;60.31
54948;BME280;41113;41.882;12.530;2023-08-31T06:39:33;100873.00;;;22.84;59.91
54948;BME280;41113;41.882;12.530;2023-08-31T06:41:58;100876.94;;;22.29;60.92
54948;BME280;41113;41.882;12.530;2023-08-31T06:44:24;100874.94;;;22.03;62.04
54948;BME280;41113;41.882;12.530;2023-08-31T06:46:49;100877.50;;;22.04;62.17
54948;BME280;41113;41.882;12.530;2023-08-31T06:49:14;100882.19;;;22.37;61.33
54948;BME280;41113;41.882;12.530;2023-08-31T06:51:40;100881.34;;;22.43;61.24
54948;BME280;41113;41.882;12.530;2023-08-31T06:54:05;100887.69;;;22.63;60.77
54948;BME280;41113;41.882;12.530;2023-08-31T06:56:35;100889.22;;;22.86;60.26
54948;BME280;41113;41.882;12.530;2023-08-31T06:59:01;100897.81;;;23.09;59.81
54948;BME280;41113;41.882;12.530;2023-08-31T07:01:28;100895.22;;;23.34;59.11
54948;BME280;41113;41.882;12.530;2023-08-31T07:03:54;100891.66;;;23.92;57.57
54948;BME280;41113;41.882;12.530;2023-08-31T07:06:19;100895.50;;;23.84;57.63
54948;BME280;41113;41.882;12.530;2023-08-31T07:08:45;100902.31;;;23.68;58.09
54948;BME280;41113;41.882;12.530;2023-08-31T07:11:12;100906.56;;;23.64;58.38
54948;BME280;41113;41.882;12.530;2023-08-31T07:13:37;100904.28;;;23.99;57.62
54948;BME280;41113;41.882;12.530;2023-08-31T07:16:03;100909.84;;;24.24;57.11
54948;BME280;41113;41.882;12.530;2023-08-31T07:18:29;100913.31;;;24.06;56.55
54948;BME280;41113;41.882;12.530;2023-08-31T07:20:54;100925.03;;;23.88;57.46
54948;BME280;41113;41.882;12.530;2023-08-31T07:23:20;100925.44;;;23.92;57.62
54948;BME280;41113;41.882;12.530;2023-08-31T07:25:45;100925.31;;;24.18;57.12
54948;BME280;41113;41.882;12.530;2023-08-31T07:28:10;100930.97;;;23.72;57.40
54948;BME280;41113;41.882;12.530;2023-08-31T07:30:36;100927.47;;;24.10;57.39
54948;BME280;41113;41.882;12.530;2023-08-31T07:33:02;100929.75;;;23.75;58.03
54948;BME280;41113;41.882;12.530;2023-08-31T07:35:29;100932.75;;;23.34;58.96
54948;BME280;41113;41.882;12.530;2023-08-31T07:37:55;100934.00;;;23.51;58.76
54948;BME280;41113;41.882;12.530;2023-08-31T07:40:20;100932.19;;;23.89;57.82
54948;BME280;41113;41.882;12.530;2023-08-31T07:42:46;100931.50;;;24.01;57.62
54948;BME280;41113;41.882;12.530;2023-08-31T07:45:12;100927.53;;;24.41;56.79
54948;BME280;41113;41.882;12.530;2023-08-31T07:47:37;100940.25;;;24.61;56.16
54948;BME280;41113;41.882;12.530;2023-08-31T07:50:03;100940.22;;;24.67;55.99
54948;BME280;41113;41.882;12.530;2023-08-31T07:52:29;100946.09;;;24.71;56.05
54948;BME280;41113;41.882;12.530;2023-08-31T07:54:54;100949.66;;;24.46;56.49
54948;BME280;41113;41.882;12.530;2023-08-31T07:57:20;100958.28;;;24.05;57.18
54948;BME280;41113;41.882;12.530;2023-08-31T07:59:45;100962.38;;;23.89;58.21
54948;BME280;41113;41.882;12.530;2023-08-31T08:02:10;100957.13;;;24.26;57.31
54948;BME280;41113;41.882;12.530;2023-08-31T08:04:36;100958.88;;;24.59;56.39
54948;BME280;41113;41.882;12.530;2023-08-31T08:07:01;100962.16;;;24.74;55.09
54948;BME280;41113;41.882;12.530;2023-08-31T08:09:28;100957.13;;;24.64;56.14
54948;BME280;41113;41.882;12.530;2023-08-31T08:11:55;100956.44;;;24.75;56.11
54948;BME280;41113;41.882;12.530;2023-08-31T08:14:20;100965.16;;;24.66;56.23
54948;BME280;41113;41.882;12.530;2023-08-31T08:16:45;100961.63;;;24.59;56.17
54948;BME280;41113;41.882;12.530;2023-08-31T08:19:10;100966.94;;;24.54;56.43
54948;BME280;41113;41.882;12.530;2023-08-31T08:21:36;100970.41;;;24.42;56.63
54948;BME280;41113;41.882;12.530;2023-08-31T08:24:01;100972.13;;;24.30;57.05
54948;BME280;41113;41.882;12.530;2023-08-31T08:26:28;100978.09;;;24.14;57.50
54948;BME280;41113;41.882;12.530;2023-08-31T08:28:53;100983.69;;;24.39;57.18
54948;BME280;41113;41.882;12.530;2023-08-31T08:31:19;100972.94;;;24.69;56.08
54948;BME280;41113;41.882;12.530;2023-08-31T08:33:44;100975.50;;;24.95;55.10
54948;BME280;41113;41.882;12.530;2023-08-31T08:36:09;100978.06;;;25.22;54.61
54948;BME280;41113;41.882;12.530;2023-08-31T08:38:35;100979.03;;;25.52;52.38
54948;BME280;41113;41.882;12.530;2023-08-31T08:41:06;100988.50;;;25.56;52.51
54948;BME280;41113;41.882;12.530;2023-08-31T08:43:33;100983.34;;;25.66;52.77
54948;BME280;41113;41.882;12.530;2023-08-31T08:46:05;100990.78;;;25.41;52.67
54948;BME280;41113;41.882;12.530;2023-08-31T08:48:33;100993.69;;;25.46;53.34
54948;BME280;41113;41.882;12.530;2023-08-31T08:50:59;100996.22;;;25.72;51.71
54948;BME280;41113;41.882;12.530;2023-08-31T08:53:25;100994.50;;;25.90;52.28
54948;BME280;41113;41.882;12.530;2023-08-31T08:55:50;101003.84;;;25.89;52.21
54948;BME280;41113;41.882;12.530;2023-08-31T08:58:15;101003.00;;;26.07;50.59
54948;BME280;41113;41.882;12.530;2023-08-31T09:00:41;100997.88;;;25.73;50.75
54948;BME280;41113;41.882;12.530;2023-08-31T09:03:07;101000.41;;;25.93;51.04
54948;BME280;41113;41.882;12.530;2023-08-31T09:05:33;100998.91;;;26.27;50.78
54948;BME280;41113;41.882;12.530;2023-08-31T09:08:08;101000.56;;;26.35;50.26
54948;BME280;41113;41.882;12.530;2023-08-31T09:10:39;101005.63;;;25.58;51.06
54948;BME280;41113;41.882;12.530;2023-08-31T09:13:13;101001.94;;;25.64;51.25
54948;BME280;41113;41.882;12.530;2023-08-31T09:15:44;101001.47;;;25.74;51.57
54948;BME280;41113;41.882;12.530;2023-08-31T09:18:25;100996.03;;;25.67;51.55
54948;BME280;41113;41.882;12.530;2023-08-31T09:20:51;101007.28;;;25.84;51.27
54948;BME280;41113;41.882;12.530;2023-08-31T09:23:17;100999.78;;;26.10;50.70
54948;BME280;41113;41.882;12.530;2023-08-31T09:25:47;100999.41;;;26.06;50.67
54948;BME280;41113;41.882;12.530;2023-08-31T09:28:20;101005.31;;;26.10;50.68
54948;BME280;41113;41.882;12.530;2023-08-31T09:30:47;100998.94;;;26.09;50.80
54948;BME280;41113;41.882;12.530;2023-08-31T09:33:14;100998.63;;;26.17;50.31
54948;BME280;41113;41.882;12.530;2023-08-31T09:35:57;101001.19;;;26.30;48.53
54948;BME280;41113;41.882;12.530;2023-08-31T09:38:23;101004.44;;;26.46;50.06
54948;BME280;41113;41.882;12.530;2023-08-31T09:40:48;100998.25;;;26.62;49.69
54948;BME280;41113;41.882;12.530;2023-08-31T09:43:21;101005.38;;;26.70;48.82
54948;BME280;41113;41.882;12.530;2023-08-31T09:45:48;101001.78;;;26.81;49.26
54948;BME280;41113;41.882;12.530;2023-08-31T09:48:15;100998.44;;;26.90;47.67
54948;BME280;41113;41.882;12.530;2023-08-31T09:50:43;101008.28;;;26.86;47.69
54948;BME280;41113;41.882;12.530;2023-08-31T09:53:10;101010.81;;;26.58;48.50
54948;BME280;41113;41.882;12.530;2023-08-31T09:55:39;101007.75;;;26.36;49.09
54948;BME280;41113;41.882;12.530;2023-08-31T09:58:06;101002.47;;;26.34;49.49
54948;BME280;41113;41.882;12.530;2023-08-31T10:00:36;101010.88;;;26.40;49.31
54948;BME280;41113;41.882;12.530;2023-08-31T10:03:05;101010.41;;;26.43;48.16
54948;BME280;41113;41.882;12.530;2023-08-31T10:05:31;101011.41;;;26.60;48.61
54948;BME280;41113;41.882;12.530;2023-08-31T10:08:00;101012.69;;;26.76;46.63
54948;BME280;41113;41.882;12.530;2023-08-31T10:10:27;101011.78;;;26.63;48.24
54948;BME280;41113;41.882;12.530;2023-08-31T10:12:53;101015.47;;;26.57;48.86
54948;BME280;41113;41.882;12.530;2023-08-31T10:15:19;101014.50;;;26.52;48.79
54948;BME280;41113;41.882;12.530;2023-08-31T10:17:44;101008.53;;;26.55;48.97
54948;BME280;41113;41.882;12.530;2023-08-31T10:20:13;101015.91;;;26.73;48.04
54948;BME280;41113;41.882;12.530;2023-08-31T10:22:39;101011.75;;;26.93;45.80
54948;BME280;41113;41.882;12.530;2023-08-31T10:25:06;101020.09;;;27.05;47.49
54948;BME280;41113;41.882;12.530;2023-08-31T10:27:42;101013.53;;;27.18;46.22
54948;BME280;41113;41.882;12.530;2023-08-31T10:33:19;101014.00;;;27.15;44.14
54948;BME280;41113;41.882;12.530;2023-08-31T10:38:33;101009.56;;;27.14;45.71
54948;BME280;41113;41.882;12.530;2023-08-31T10:43:47;101005.88;;;27.43;44.47
54948;BME280;41113;41.882;12.530;2023-08-31T10:46:34;101005.03;;;27.43;44.69
54948;BME280;41113;41.882;12.530;2023-08-31T10:51:35;101016.06;;;27.43;45.98
54948;BME280;41113;41.882;12.530;2023-08-31T10:56:30;101001.91;;;27.27;45.80
54948;BME280;41113;41.882;12.530;2023-08-31T10:59:01;101003.84;;;26.85;45.44
54948;BME280;41113;41.882;12.530;2023-08-31T11:02:46;101000.34;;;26.78;46.33
54948;BME280;41113;41.882;12.530;2023-08-31T11:05:13;101004.75;;;26.67;45.17
54948;BME280;41113;41.882;12.530;2023-08-31T11:07:41;101000.72;;;26.93;46.57
54948;BME280;41113;41.882;12.530;2023-08-31T11:10:21;101002.00;;;27.21;44.76
54948;BME280;41113;41.882;12.530;2023-08-31T11:12:53;100999.84;;;27.23;45.62
54948;BME280;41113;41.882;12.530;2023-08-31T11:15:24;100995.78;;;27.02;45.41
54948;BME280;41113;41.882;12.530;2023-08-31T11:17:51;100999.41;;;26.96;46.17
54948;BME280;41113;41.882;12.530;2023-08-31T11:20:21;100992.91;;;27.09;44.95
54948;BME280;41113;41.882;12.530;2023-08-31T11:22:49;100989.91;;;27.10;45.22
54948;BME280;41113;41.882;12.530;2023-08-31T11:25:16;100992.78;;;27.15;45.40
54948;BME280;41113;41.882;12.530;2023-08-31T11:27:53;100998.19;;;27.22;44.45
54948;BME280;41113;41.882;12.530;2023-08-31T11:30:19;101001.94;;;26.97;43.67
54948;BME280;41113;41.882;12.530;2023-08-31T11:32:47;100999.03;;;26.39;44.02
54948;BME280;41113;41.882;12.530;2023-08-31T11:35:14;101002.84;;;26.38;45.18
54948;BME280;41113;41.882;12.530;2023-08-31T11:37:41;101002.56;;;26.58;44.84
54948;BME280;41113;41.882;12.530;2023-08-31T11:40:08;100999.75;;;26.76;44.48
54948;BME280;41113;41.882;12.530;2023-08-31T11:42:34;100990.88;;;26.74;44.54
54948;BME280;41113;41.882;12.530;2023-08-31T11:44:59;100986.94;;;26.93;44.18
54948;BME280;41113;41.882;12.530;2023-08-31T11:47:25;100987.38;;;27.09;43.84
54948;BME280;41113;41.882;12.530;2023-08-31T11:49:51;100987.38;;;27.20;43.97
54948;BME280;41113;41.882;12.530;2023-08-31T11:52:17;100990.28;;;27.37;43.72
54948;BME280;41113;41.882;12.530;2023-08-31T11:54:43;100992.19;;;27.48;43.97
54948;BME280;41113;41.882;12.530;2023-08-31T11:57:09;100998.41;;;27.55;43.63
54948;BME280;41113;41.882;12.530;2023-08-31T11:59:37;100993.50;;;27.57;43.43
54948;BME280;41113;41.882;12.530;2023-08-31T12:02:07;100993.66;;;27.63;43.22
54948;BME280;41113;41.882;12.530;2023-08-31T12:04:45;100991.59;;;27.58;42.68
54948;BME280;41113;41.882;12.530;2023-08-31T12:07:11;100993.00;;;27.60;43.60
54948;BME280;41113;41.882;12.530;2023-08-31T12:09:37;100982.50;;;27.34;44.00
54948;BME280;41113;41.882;12.530;2023-08-31T12:12:03;100985.94;;;27.18;44.27
54948;BME280;41113;41.882;12.530;2023-08-31T12:14:31;100980.91;;;27.03;44.52
54948;BME280;41113;41.882;12.530;2023-08-31T12:17:02;100987.44;;;26.90;43.33
54948;BME280;41113;41.882;12.530;2023-08-31T12:19:29;100988.81;;;27.00;44.41
54948;BME280;41113;41.882;12.530;2023-08-31T12:21:55;100980.19;;;27.08;44.17
54948;BME280;41113;41.882;12.530;2023-08-31T12:24:21;100987.50;;;27.14;44.18
54948;BME280;41113;41.882;12.530;2023-08-31T12:26:47;100993.84;;;27.26;44.49
54948;BME280;41113;41.882;12.530;2023-08-31T12:29:13;100993.38;;;27.29;44.32
54948;BME280;41113;41.882;12.530;2023-08-31T12:31:38;100993.84;;;27.26;44.53
54948;BME280;41113;41.882;12.530;2023-08-31T12:34:04;100988.34;;;27.26;44.88
54948;BME280;41113;41.882;12.530;2023-08-31T12:36:32;100982.22;;;27.24;45.08
54948;BME280;41113;41.882;12.530;2023-08-31T12:38:57;100987.25;;;27.15;45.54
54948;BME280;41113;41.882;12.530;2023-08-31T12:41:27;100985.22;;;27.11;45.80
54948;BME280;41113;41.882;12.530;2023-08-31T12:43:52;100995.53;;;27.04;46.08
54948;BME280;41113;41.882;12.530;2023-08-31T12:46:17;100987.03;;;27.05;46.38
54948;BME280;41113;41.882;12.530;2023-08-31T12:48:43;100990.03;;;27.04;46.70
54948;BME280;41113;41.882;12.530;2023-08-31T12:51:08;100990.06;;;26.97;46.87
54948;BME280;41113;41.882;12.530;2023-08-31T12:53:38;100995.22;;;26.93;46.68
54948;BME280;41113;41.882;12.530;2023-08-31T12:56:04;100988.50;;;26.89;46.85
54948;BME280;41113;41.882;12.530;2023-08-31T12:58:29;100989.41;;;27.02;47.03
54948;BME280;41113;41.882;12.530;2023-08-31T13:01:00;100985.72;;;27.08;46.81